sensor_id;sensor_type;location;lat;lon;timestamp;P1;durP1;ratioP1;P2;durP2;ratioP2
19339;SDS011;9804;52.350;6.684;2023-07-16T00:00:49;12.30;;;8.75;;
19339;SDS011;9804;52.350;6.684;2023-07-16T00:03:15;13.73;;;8.50;;
19339;SDS011;9804;52.350;6.684;2023-07-16T00:05:40;10.93;;;8.00;;
19339;SDS011;9804;52.350;6.684;2023-07-16T00:08:05;13.30;;;8.32;;
19339;SDS011;9804;52.350;6.684;2023-07-16T00:10:34;12.52;;;7.70;;
19339;SDS011;9804;52.350;6.684;2023-07-16T00:13:00;13.48;;;8.15;;
19339;SDS011;9804;52.350;6.684;2023-07-16T00:15:26;11.45;;;7.75;;
19339;SDS011;9804;52.350;6.684;2023-07-16T00:17:51;10.73;;;8.02;;
19339;SDS011;9804;52.350;6.684;2023-07-16T00:20:17;14.43;;;7.40;;
19339;SDS011;9804;52.350;6.684;2023-07-16T00:22:42;14.05;;;8.90;;
19339;SDS011;9804;52.350;6.684;2023-07-16T00:25:08;13.57;;;9.10;;
19339;SDS011;9804;52.350;6.684;2023-07-16T00:27:33;14.88;;;9.77;;
19339;SDS011;9804;52.350;6.684;2023-07-16T00:29:59;12.00;;;8.65;;
19339;SDS011;9804;52.350;6.684;2023-07-16T00:32:24;13.05;;;8.13;;
19339;SDS011;9804;52.350;6.684;2023-07-16T00:34:50;11.00;;;8.23;;
19339;SDS011;9804;52.350;6.684;2023-07-16T00:37:15;14.07;;;8.57;;
19339;SDS011;9804;52.350;6.684;2023-07-16T00:39:40;11.40;;;8.82;;
19339;SDS011;9804;52.350;6.684;2023-07-16T00:42:06;14.70;;;9.50;;
19339;SDS011;9804;52.350;6.684;2023-07-16T00:44:31;15.13;;;9.52;;
19339;SDS011;9804;52.350;6.684;2023-07-16T00:46:56;13.10;;;9.07;;
19339;SDS011;9804;52.350;6.684;2023-07-16T00:49:23;19.25;;;10.13;;
19339;SDS011;9804;52.350;6.684;2023-07-16T00:51:49;16.60;;;9.63;;
19339;SDS011;9804;52.350;6.684;2023-07-16T00:54:16;18.02;;;9.45;;
19339;SDS011;9804;52.350;6.684;2023-07-16T00:56:41;12.50;;;7.78;;
19339;SDS011;9804;52.350;6.684;2023-07-16T00:59:06;13.30;;;7.28;;
19339;SDS011;9804;52.350;6.684;2023-07-16T01:01:32;10.20;;;6.22;;
19339;SDS011;9804;52.350;6.684;2023-07-16T01:03:57;12.60;;;6.47;;
19339;SDS011;9804;52.350;6.684;2023-07-16T01:06:25;10.32;;;6.53;;
19339;SDS011;9804;52.350;6.684;2023-07-16T01:09:02;10.75;;;6.03;;
19339;SDS011;9804;52.350;6.684;2023-07-16T01:11:31;14.68;;;7.18;;
19339;SDS011;9804;52.350;6.684;2023-07-16T01:14:00;10.30;;;6.93;;
19339;SDS011;9804;52.350;6.684;2023-07-16T01:16:26;9.77;;;6.63;;
19339;SDS011;9804;52.350;6.684;2023-07-16T01:18:52;8.50;;;5.68;;
19339;SDS011;9804;52.350;6.684;2023-07-16T01:21:19;11.13;;;6.93;;
19339;SDS011;9804;52.350;6.684;2023-07-16T01:26:39;13.02;;;6.38;;
19339;SDS011;9804;52.350;6.684;2023-07-16T01:32:07;11.80;;;5.85;;
19339;SDS011;9804;52.350;6.684;2023-07-16T01:34:36;15.23;;;5.47;;
19339;SDS011;9804;52.350;6.684;2023-07-16T01:37:03;10.52;;;5.15;;
19339;SDS011;9804;52.350;6.684;2023-07-16T01:39:30;12.60;;;5.47;;
19339;SDS011;9804;52.350;6.684;2023-07-16T01:41:56;13.35;;;5.38;;
19339;SDS011;9804;52.350;6.684;2023-07-16T01:44:21;12.27;;;6.20;;
19339;SDS011;9804;52.350;6.684;2023-07-16T01:46:49;17.88;;;5.82;;
19339;SDS011;9804;52.350;6.684;2023-07-16T01:49:26;10.52;;;6.15;;
19339;SDS011;9804;52.350;6.684;2023-07-16T01:51:52;11.63;;;5.90;;
19339;SDS011;9804;52.350;6.684;2023-07-16T01:54:17;13.35;;;6.90;;
19339;SDS011;9804;52.350;6.684;2023-07-16T01:56:42;12.10;;;6.85;;
19339;SDS011;9804;52.350;6.684;2023-07-16T01:59:08;14.93;;;6.65;;
19339;SDS011;9804;52.350;6.684;2023-07-16T02:01:33;14.20;;;7.32;;
19339;SDS011;9804;52.350;6.684;2023-07-16T02:03:58;15.30;;;7.10;;
19339;SDS011;9804;52.350;6.684;2023-07-16T02:06:24;13.95;;;7.05;;
19339;SDS011;9804;52.350;6.684;2023-07-16T02:08:49;12.13;;;6.78;;
19339;SDS011;9804;52.350;6.684;2023-07-16T02:11:15;10.50;;;6.82;;
19339;SDS011;9804;52.350;6.684;2023-07-16T02:13:40;16.30;;;7.75;;
19339;SDS011;9804;52.350;6.684;2023-07-16T02:16:05;13.05;;;6.53;;
19339;SDS011;9804;52.350;6.684;2023-07-16T02:18:31;11.02;;;8.13;;
19339;SDS011;9804;52.350;6.684;2023-07-16T02:20:56;16.63;;;8.40;;
19339;SDS011;9804;52.350;6.684;2023-07-16T02:23:22;13.18;;;8.02;;
19339;SDS011;9804;52.350;6.684;2023-07-16T02:25:47;12.68;;;7.50;;
19339;SDS011;9804;52.350;6.684;2023-07-16T02:28:12;9.00;;;6.32;;
19339;SDS011;9804;52.350;6.684;2023-07-16T02:30:40;12.32;;;6.50;;
19339;SDS011;9804;52.350;6.684;2023-07-16T02:33:05;14.90;;;6.85;;
19339;SDS011;9804;52.350;6.684;2023-07-16T02:35:31;11.27;;;6.50;;
19339;SDS011;9804;52.350;6.684;2023-07-16T02:37:56;10.40;;;6.35;;
19339;SDS011;9804;52.350;6.684;2023-07-16T02:40:21;13.32;;;5.70;;
19339;SDS011;9804;52.350;6.684;2023-07-16T02:42:47;14.35;;;5.88;;
19339;SDS011;9804;52.350;6.684;2023-07-16T02:45:12;15.82;;;5.80;;
19339;SDS011;9804;52.350;6.684;2023-07-16T02:47:38;10.27;;;5.90;;
19339;SDS011;9804;52.350;6.684;2023-07-16T02:50:03;13.43;;;6.97;;
19339;SDS011;9804;52.350;6.684;2023-07-16T02:52:29;10.75;;;5.38;;
19339;SDS011;9804;52.350;6.684;2023-07-16T02:54:54;8.50;;;5.22;;
19339;SDS011;9804;52.350;6.684;2023-07-16T02:57:20;13.07;;;5.13;;
19339;SDS011;9804;52.350;6.684;2023-07-16T02:59:46;10.52;;;4.75;;
19339;SDS011;9804;52.350;6.684;2023-07-16T03:02:11;14.57;;;4.57;;
19339;SDS011;9804;52.350;6.684;2023-07-16T03:04:37;10.77;;;4.25;;
19339;SDS011;9804;52.350;6.684;2023-07-16T03:07:02;10.55;;;4.05;;
19339;SDS011;9804;52.350;6.684;2023-07-16T03:09:28;12.35;;;4.18;;
19339;SDS011;9804;52.350;6.684;2023-07-16T03:11:53;13.80;;;4.63;;
19339;SDS011;9804;52.350;6.684;2023-07-16T03:14:19;14.52;;;4.53;;
19339;SDS011;9804;52.350;6.684;2023-07-16T03:16:44;10.50;;;4.38;;
19339;SDS011;9804;52.350;6.684;2023-07-16T03:19:09;12.23;;;3.88;;
19339;SDS011;9804;52.350;6.684;2023-07-16T03:21:35;13.93;;;4.53;;
19339;SDS011;9804;52.350;6.684;2023-07-16T03:24:00;12.10;;;3.97;;
19339;SDS011;9804;52.350;6.684;2023-07-16T03:26:25;13.38;;;4.60;;
19339;SDS011;9804;52.350;6.684;2023-07-16T03:28:51;15.27;;;4.40;;
19339;SDS011;9804;52.350;6.684;2023-07-16T03:31:16;12.52;;;3.70;;
19339;SDS011;9804;52.350;6.684;2023-07-16T03:33:42;10.65;;;3.75;;
19339;SDS011;9804;52.350;6.684;2023-07-16T03:36:07;12.07;;;4.05;;
19339;SDS011;9804;52.350;6.684;2023-07-16T03:38:32;9.93;;;4.20;;
19339;SDS011;9804;52.350;6.684;2023-07-16T03:40:58;11.07;;;4.13;;
19339;SDS011;9804;52.350;6.684;2023-07-16T03:43:23;10.77;;;4.18;;
19339;SDS011;9804;52.350;6.684;2023-07-16T03:45:48;12.30;;;4.35;;
19339;SDS011;9804;52.350;6.684;2023-07-16T03:48:14;10.60;;;4.18;;
19339;SDS011;9804;52.350;6.684;2023-07-16T03:50:39;10.90;;;4.20;;
19339;SDS011;9804;52.350;6.684;2023-07-16T03:53:05;8.93;;;3.85;;
19339;SDS011;9804;52.350;6.684;2023-07-16T03:55:30;11.02;;;4.55;;
19339;SDS011;9804;52.350;6.684;2023-07-16T03:57:56;9.43;;;4.05;;
19339;SDS011;9804;52.350;6.684;2023-07-16T04:00:21;13.40;;;4.90;;
19339;SDS011;9804;52.350;6.684;2023-07-16T04:02:47;15.85;;;4.47;;
19339;SDS011;9804;52.350;6.684;2023-07-16T04:05:12;10.10;;;3.83;;
19339;SDS011;9804;52.350;6.684;2023-07-16T04:07:38;11.45;;;4.43;;
19339;SDS011;9804;52.350;6.684;2023-07-16T04:10:03;11.27;;;3.92;;
19339;SDS011;9804;52.350;6.684;2023-07-16T04:12:29;10.23;;;4.28;;
19339;SDS011;9804;52.350;6.684;2023-07-16T04:14:55;11.63;;;4.55;;
19339;SDS011;9804;52.350;6.684;2023-07-16T04:17:22;8.98;;;3.97;;
19339;SDS011;9804;52.350;6.684;2023-07-16T04:19:48;12.43;;;4.45;;
19339;SDS011;9804;52.350;6.684;2023-07-16T04:22:14;9.05;;;4.30;;
19339;SDS011;9804;52.350;6.684;2023-07-16T04:24:39;12.05;;;4.30;;
19339;SDS011;9804;52.350;6.684;2023-07-16T04:27:04;9.90;;;4.03;;
19339;SDS011;9804;52.350;6.684;2023-07-16T04:29:30;10.27;;;4.40;;
19339;SDS011;9804;52.350;6.684;2023-07-16T04:31:55;14.73;;;4.40;;
19339;SDS011;9804;52.350;6.684;2023-07-16T04:34:21;10.32;;;4.00;;
19339;SDS011;9804;52.350;6.684;2023-07-16T04:36:46;8.32;;;4.53;;
19339;SDS011;9804;52.350;6.684;2023-07-16T04:39:11;11.93;;;3.97;;
19339;SDS011;9804;52.350;6.684;2023-07-16T04:41:37;11.63;;;3.75;;
19339;SDS011;9804;52.350;6.684;2023-07-16T04:44:02;7.90;;;3.47;;
19339;SDS011;9804;52.350;6.684;2023-07-16T04:46:28;8.65;;;3.42;;
19339;SDS011;9804;52.350;6.684;2023-07-16T04:48:55;6.57;;;3.50;;
19339;SDS011;9804;52.350;6.684;2023-07-16T04:51:20;8.95;;;3.63;;
19339;SDS011;9804;52.350;6.684;2023-07-16T04:53:46;9.52;;;3.90;;
19339;SDS011;9804;52.350;6.684;2023-07-16T04:56:12;9.80;;;3.65;;
19339;SDS011;9804;52.350;6.684;2023-07-16T04:58:38;7.95;;;3.33;;
19339;SDS011;9804;52.350;6.684;2023-07-16T05:01:03;12.13;;;4.47;;
19339;SDS011;9804;52.350;6.684;2023-07-16T05:03:28;7.63;;;3.80;;
19339;SDS011;9804;52.350;6.684;2023-07-16T05:05:54;10.15;;;3.97;;
19339;SDS011;9804;52.350;6.684;2023-07-16T05:08:19;12.82;;;4.43;;
19339;SDS011;9804;52.350;6.684;2023-07-16T05:10:45;10.32;;;4.07;;
19339;SDS011;9804;52.350;6.684;2023-07-16T05:13:10;10.70;;;3.95;;
19339;SDS011;9804;52.350;6.684;2023-07-16T05:15:36;10.73;;;4.70;;
19339;SDS011;9804;52.350;6.684;2023-07-16T05:18:02;9.90;;;4.05;;
19339;SDS011;9804;52.350;6.684;2023-07-16T05:20:27;6.65;;;3.60;;
19339;SDS011;9804;52.350;6.684;2023-07-16T05:22:53;8.93;;;4.35;;
19339;SDS011;9804;52.350;6.684;2023-07-16T05:25:18;14.55;;;4.57;;
19339;SDS011;9804;52.350;6.684;2023-07-16T05:27:43;13.30;;;4.60;;
19339;SDS011;9804;52.350;6.684;2023-07-16T05:30:09;11.05;;;4.82;;
19339;SDS011;9804;52.350;6.684;2023-07-16T05:32:35;10.85;;;4.30;;
19339;SDS011;9804;52.350;6.684;2023-07-16T05:35:00;15.88;;;4.60;;
19339;SDS011;9804;52.350;6.684;2023-07-16T05:37:26;8.93;;;4.47;;
19339;SDS011;9804;52.350;6.684;2023-07-16T05:39:51;12.43;;;4.38;;
19339;SDS011;9804;52.350;6.684;2023-07-16T05:42:17;9.52;;;4.20;;
19339;SDS011;9804;52.350;6.684;2023-07-16T05:44:42;11.52;;;4.68;;
19339;SDS011;9804;52.350;6.684;2023-07-16T05:47:09;11.00;;;4.90;;
19339;SDS011;9804;52.350;6.684;2023-07-16T05:49:35;11.00;;;4.97;;
19339;SDS011;9804;52.350;6.684;2023-07-16T05:52:00;9.48;;;5.22;;
19339;SDS011;9804;52.350;6.684;2023-07-16T05:54:26;14.63;;;5.38;;
19339;SDS011;9804;52.350;6.684;2023-07-16T05:56:51;10.48;;;4.80;;
19339;SDS011;9804;52.350;6.684;2023-07-16T05:59:16;9.52;;;4.50;;
19339;SDS011;9804;52.350;6.684;2023-07-16T06:01:42;11.55;;;5.05;;
19339;SDS011;9804;52.350;6.684;2023-07-16T06:04:07;13.55;;;5.30;;
19339;SDS011;9804;52.350;6.684;2023-07-16T06:06:32;9.35;;;4.75;;
19339;SDS011;9804;52.350;6.684;2023-07-16T06:08:58;11.30;;;4.55;;
19339;SDS011;9804;52.350;6.684;2023-07-16T06:11:23;10.93;;;5.00;;
19339;SDS011;9804;52.350;6.684;2023-07-16T06:13:48;9.10;;;4.57;;
19339;SDS011;9804;52.350;6.684;2023-07-16T06:16:14;11.98;;;5.13;;
19339;SDS011;9804;52.350;6.684;2023-07-16T06:18:40;10.48;;;4.78;;
19339;SDS011;9804;52.350;6.684;2023-07-16T06:21:05;11.63;;;5.32;;
19339;SDS011;9804;52.350;6.684;2023-07-16T06:23:30;11.02;;;5.30;;
19339;SDS011;9804;52.350;6.684;2023-07-16T06:25:56;11.02;;;5.07;;
19339;SDS011;9804;52.350;6.684;2023-07-16T06:28:22;9.88;;;5.25;;
19339;SDS011;9804;52.350;6.684;2023-07-16T06:30:47;10.85;;;4.85;;
19339;SDS011;9804;52.350;6.684;2023-07-16T06:33:13;12.68;;;5.45;;
19339;SDS011;9804;52.350;6.684;2023-07-16T06:35:39;11.93;;;4.93;;
19339;SDS011;9804;52.350;6.684;2023-07-16T06:38:04;12.88;;;5.45;;
19339;SDS011;9804;52.350;6.684;2023-07-16T06:40:29;11.23;;;5.00;;
19339;SDS011;9804;52.350;6.684;2023-07-16T06:42:55;8.23;;;4.88;;
19339;SDS011;9804;52.350;6.684;2023-07-16T06:45:21;14.60;;;5.50;;
19339;SDS011;9804;52.350;6.684;2023-07-16T06:47:47;10.43;;;5.75;;
19339;SDS011;9804;52.350;6.684;2023-07-16T06:50:13;10.60;;;5.47;;
19339;SDS011;9804;52.350;6.684;2023-07-16T06:52:38;13.32;;;5.75;;
19339;SDS011;9804;52.350;6.684;2023-07-16T06:55:04;16.10;;;5.93;;
19339;SDS011;9804;52.350;6.684;2023-07-16T06:57:29;11.52;;;6.05;;
19339;SDS011;9804;52.350;6.684;2023-07-16T06:59:55;11.52;;;5.63;;
19339;SDS011;9804;52.350;6.684;2023-07-16T07:02:20;14.20;;;5.70;;
19339;SDS011;9804;52.350;6.684;2023-07-16T07:04:46;12.50;;;5.60;;
19339;SDS011;9804;52.350;6.684;2023-07-16T07:07:11;16.10;;;5.50;;
19339;SDS011;9804;52.350;6.684;2023-07-16T07:09:36;12.68;;;5.30;;
19339;SDS011;9804;52.350;6.684;2023-07-16T07:12:02;10.57;;;5.35;;
19339;SDS011;9804;52.350;6.684;2023-07-16T07:14:27;11.95;;;5.50;;
19339;SDS011;9804;52.350;6.684;2023-07-16T07:16:53;11.32;;;5.78;;
19339;SDS011;9804;52.350;6.684;2023-07-16T07:19:18;12.40;;;5.22;;
19339;SDS011;9804;52.350;6.684;2023-07-16T07:21:44;15.48;;;6.18;;
19339;SDS011;9804;52.350;6.684;2023-07-16T07:24:09;13.93;;;5.05;;
19339;SDS011;9804;52.350;6.684;2023-07-16T07:26:34;13.02;;;5.28;;
19339;SDS011;9804;52.350;6.684;2023-07-16T07:29:00;12.32;;;5.53;;
19339;SDS011;9804;52.350;6.684;2023-07-16T07:31:25;10.43;;;5.25;;
19339;SDS011;9804;52.350;6.684;2023-07-16T07:33:51;13.73;;;5.40;;
19339;SDS011;9804;52.350;6.684;2023-07-16T07:36:18;11.48;;;5.13;;
19339;SDS011;9804;52.350;6.684;2023-07-16T07:38:44;13.73;;;5.68;;
19339;SDS011;9804;52.350;6.684;2023-07-16T07:41:09;10.82;;;5.40;;
19339;SDS011;9804;52.350;6.684;2023-07-16T07:43:34;10.80;;;5.68;;
19339;SDS011;9804;52.350;6.684;2023-07-16T07:46:00;13.20;;;5.28;;
19339;SDS011;9804;52.350;6.684;2023-07-16T07:48:25;14.27;;;5.80;;
19339;SDS011;9804;52.350;6.684;2023-07-16T07:50:51;9.82;;;5.43;;
19339;SDS011;9804;52.350;6.684;2023-07-16T07:53:16;12.60;;;4.95;;
19339;SDS011;9804;52.350;6.684;2023-07-16T07:55:43;12.35;;;5.00;;
19339;SDS011;9804;52.350;6.684;2023-07-16T07:58:09;17.98;;;5.40;;
19339;SDS011;9804;52.350;6.684;2023-07-16T08:00:34;10.60;;;5.30;;
19339;SDS011;9804;52.350;6.684;2023-07-16T08:03:00;12.75;;;5.22;;
19339;SDS011;9804;52.350;6.684;2023-07-16T08:05:25;13.43;;;5.68;;
19339;SDS011;9804;52.350;6.684;2023-07-16T08:07:51;12.23;;;4.90;;
19339;SDS011;9804;52.350;6.684;2023-07-16T08:10:17;9.93;;;5.03;;
19339;SDS011;9804;52.350;6.684;2023-07-16T08:12:42;12.15;;;5.13;;
19339;SDS011;9804;52.350;6.684;2023-07-16T08:15:08;7.13;;;4.97;;
19339;SDS011;9804;52.350;6.684;2023-07-16T08:17:39;11.10;;;5.00;;
19339;SDS011;9804;52.350;6.684;2023-07-16T08:20:05;12.20;;;5.28;;
19339;SDS011;9804;52.350;6.684;2023-07-16T08:22:32;10.45;;;5.30;;
19339;SDS011;9804;52.350;6.684;2023-07-16T08:24:57;13.30;;;5.85;;
19339;SDS011;9804;52.350;6.684;2023-07-16T08:27:22;13.00;;;5.03;;
19339;SDS011;9804;52.350;6.684;2023-07-16T08:29:48;10.68;;;4.57;;
19339;SDS011;9804;52.350;6.684;2023-07-16T08:32:13;12.48;;;5.22;;
19339;SDS011;9804;52.350;6.684;2023-07-16T08:34:38;10.88;;;5.35;;
19339;SDS011;9804;52.350;6.684;2023-07-16T08:37:04;9.35;;;4.75;;
19339;SDS011;9804;52.350;6.684;2023-07-16T08:39:30;9.65;;;4.93;;
19339;SDS011;9804;52.350;6.684;2023-07-16T08:41:56;9.65;;;5.00;;
19339;SDS011;9804;52.350;6.684;2023-07-16T08:44:22;9.52;;;5.07;;
19339;SDS011;9804;52.350;6.684;2023-07-16T08:46:48;13.32;;;5.65;;
19339;SDS011;9804;52.350;6.684;2023-07-16T08:49:15;10.00;;;4.60;;
19339;SDS011;9804;52.350;6.684;2023-07-16T08:51:43;7.40;;;4.53;;
19339;SDS011;9804;52.350;6.684;2023-07-16T08:54:13;9.95;;;4.93;;
19339;SDS011;9804;52.350;6.684;2023-07-16T08:56:44;11.30;;;5.03;;
19339;SDS011;9804;52.350;6.684;2023-07-16T08:59:10;9.60;;;4.90;;
19339;SDS011;9804;52.350;6.684;2023-07-16T09:01:36;11.60;;;4.88;;
19339;SDS011;9804;52.350;6.684;2023-07-16T09:04:02;7.82;;;5.15;;
19339;SDS011;9804;52.350;6.684;2023-07-16T09:06:28;12.73;;;5.18;;
19339;SDS011;9804;52.350;6.684;2023-07-16T09:08:53;9.63;;;4.93;;
19339;SDS011;9804;52.350;6.684;2023-07-16T09:11:20;8.48;;;4.80;;
19339;SDS011;9804;52.350;6.684;2023-07-16T09:13:47;15.05;;;6.20;;
19339;SDS011;9804;52.350;6.684;2023-07-16T09:16:13;10.27;;;5.30;;
19339;SDS011;9804;52.350;6.684;2023-07-16T09:18:41;11.68;;;5.75;;
19339;SDS011;9804;52.350;6.684;2023-07-16T09:21:07;11.45;;;5.75;;
19339;SDS011;9804;52.350;6.684;2023-07-16T09:23:32;13.40;;;5.80;;
19339;SDS011;9804;52.350;6.684;2023-07-16T09:25:58;8.80;;;5.03;;
19339;SDS011;9804;52.350;6.684;2023-07-16T09:28:24;8.32;;;4.72;;
19339;SDS011;9804;52.350;6.684;2023-07-16T09:30:50;11.00;;;5.25;;
19339;SDS011;9804;52.350;6.684;2023-07-16T09:33:17;15.48;;;5.38;;
19339;SDS011;9804;52.350;6.684;2023-07-16T09:35:48;11.10;;;5.13;;
19339;SDS011;9804;52.350;6.684;2023-07-16T09:38:14;11.57;;;4.55;;
19339;SDS011;9804;52.350;6.684;2023-07-16T09:40:41;10.23;;;4.65;;
19339;SDS011;9804;52.350;6.684;2023-07-16T09:43:07;8.93;;;5.05;;
19339;SDS011;9804;52.350;6.684;2023-07-16T09:45:33;9.57;;;4.75;;
19339;SDS011;9804;52.350;6.684;2023-07-16T09:47:59;9.25;;;4.88;;
19339;SDS011;9804;52.350;6.684;2023-07-16T09:50:24;12.68;;;5.05;;
19339;SDS011;9804;52.350;6.684;2023-07-16T09:52:55;9.02;;;5.00;;
19339;SDS011;9804;52.350;6.684;2023-07-16T09:55:21;12.00;;;5.10;;
19339;SDS011;9804;52.350;6.684;2023-07-16T09:57:47;9.40;;;5.30;;
19339;SDS011;9804;52.350;6.684;2023-07-16T10:00:14;7.82;;;4.57;;
19339;SDS011;9804;52.350;6.684;2023-07-16T10:02:42;9.15;;;4.90;;
19339;SDS011;9804;52.350;6.684;2023-07-16T10:05:11;10.38;;;5.65;;
19339;SDS011;9804;52.350;6.684;2023-07-16T10:07:57;8.80;;;4.97;;
19339;SDS011;9804;52.350;6.684;2023-07-16T10:10:37;13.50;;;5.47;;
19339;SDS011;9804;52.350;6.684;2023-07-16T10:13:12;9.50;;;5.15;;
19339;SDS011;9804;52.350;6.684;2023-07-16T10:15:38;7.63;;;4.47;;
19339;SDS011;9804;52.350;6.684;2023-07-16T10:18:03;8.80;;;4.75;;
19339;SDS011;9804;52.350;6.684;2023-07-16T10:20:30;9.77;;;5.15;;
19339;SDS011;9804;52.350;6.684;2023-07-16T10:23:09;8.30;;;3.90;;
19339;SDS011;9804;52.350;6.684;2023-07-16T10:25:37;9.27;;;4.57;;
19339;SDS011;9804;52.350;6.684;2023-07-16T10:28:03;11.95;;;4.57;;
19339;SDS011;9804;52.350;6.684;2023-07-16T10:30:28;9.32;;;4.40;;
19339;SDS011;9804;52.350;6.684;2023-07-16T10:32:53;8.20;;;4.50;;
19339;SDS011;9804;52.350;6.684;2023-07-16T10:35:19;7.30;;;4.30;;
19339;SDS011;9804;52.350;6.684;2023-07-16T10:37:44;10.43;;;4.60;;
19339;SDS011;9804;52.350;6.684;2023-07-16T10:40:10;8.38;;;4.75;;
19339;SDS011;9804;52.350;6.684;2023-07-16T10:42:37;10.25;;;4.95;;
19339;SDS011;9804;52.350;6.684;2023-07-16T10:45:05;11.77;;;4.50;;
19339;SDS011;9804;52.350;6.684;2023-07-16T10:49:58;13.02;;;4.53;;
19339;SDS011;9804;52.350;6.684;2023-07-16T10:52:24;10.00;;;4.65;;
19339;SDS011;9804;52.350;6.684;2023-07-16T10:54:50;8.85;;;4.53;;
19339;SDS011;9804;52.350;6.684;2023-07-16T10:57:19;9.57;;;4.95;;
19339;SDS011;9804;52.350;6.684;2023-07-16T10:59:46;7.50;;;4.47;;
19339;SDS011;9804;52.350;6.684;2023-07-16T11:02:13;10.18;;;4.65;;
19339;SDS011;9804;52.350;6.684;2023-07-16T11:04:39;10.07;;;4.53;;
19339;SDS011;9804;52.350;6.684;2023-07-16T11:07:06;10.93;;;4.40;;
19339;SDS011;9804;52.350;6.684;2023-07-16T11:09:33;9.48;;;4.63;;
19339;SDS011;9804;52.350;6.684;2023-07-16T11:12:05;8.48;;;4.22;;
19339;SDS011;9804;52.350;6.684;2023-07-16T11:14:34;9.40;;;5.15;;
19339;SDS011;9804;52.350;6.684;2023-07-16T11:17:08;8.00;;;4.18;;
19339;SDS011;9804;52.350;6.684;2023-07-16T11:19:36;6.72;;;4.35;;
19339;SDS011;9804;52.350;6.684;2023-07-16T11:22:02;9.07;;;4.38;;
19339;SDS011;9804;52.350;6.684;2023-07-16T11:24:35;7.28;;;4.35;;
19339;SDS011;9804;52.350;6.684;2023-07-16T11:27:22;11.85;;;5.10;;
19339;SDS011;9804;52.350;6.684;2023-07-16T11:29:56;6.97;;;4.40;;
19339;SDS011;9804;52.350;6.684;2023-07-16T11:32:26;8.07;;;4.47;;
19339;SDS011;9804;52.350;6.684;2023-07-16T11:34:59;9.93;;;4.63;;
19339;SDS011;9804;52.350;6.684;2023-07-16T11:37:25;9.38;;;4.47;;
19339;SDS011;9804;52.350;6.684;2023-07-16T11:39:56;9.30;;;4.60;;
19339;SDS011;9804;52.350;6.684;2023-07-16T11:42:22;9.85;;;4.97;;
19339;SDS011;9804;52.350;6.684;2023-07-16T11:44:58;6.72;;;4.35;;
19339;SDS011;9804;52.350;6.684;2023-07-16T11:47:24;8.40;;;4.22;;
19339;SDS011;9804;52.350;6.684;2023-07-16T11:49:50;9.65;;;4.45;;
19339;SDS011;9804;52.350;6.684;2023-07-16T11:52:33;9.73;;;4.88;;
19339;SDS011;9804;52.350;6.684;2023-07-16T11:54:59;9.32;;;5.00;;
19339;SDS011;9804;52.350;6.684;2023-07-16T11:57:25;10.00;;;4.75;;
19339;SDS011;9804;52.350;6.684;2023-07-16T11:59:50;9.90;;;4.43;;
19339;SDS011;9804;52.350;6.684;2023-07-16T12:02:15;9.13;;;4.20;;
19339;SDS011;9804;52.350;6.684;2023-07-16T12:04:41;10.93;;;3.92;;
19339;SDS011;9804;52.350;6.684;2023-07-16T12:07:07;12.32;;;4.03;;
19339;SDS011;9804;52.350;6.684;2023-07-16T12:09:32;8.05;;;4.47;;
19339;SDS011;9804;52.350;6.684;2023-07-16T12:11:58;8.57;;;3.70;;
19339;SDS011;9804;52.350;6.684;2023-07-16T12:14:24;6.07;;;4.00;;
19339;SDS011;9804;52.350;6.684;2023-07-16T12:16:49;8.43;;;3.72;;
19339;SDS011;9804;52.350;6.684;2023-07-16T12:19:15;9.25;;;3.85;;
19339;SDS011;9804;52.350;6.684;2023-07-16T12:21:40;6.63;;;3.80;;
19339;SDS011;9804;52.350;6.684;2023-07-16T12:24:06;4.40;;;3.40;;
19339;SDS011;9804;52.350;6.684;2023-07-16T12:26:31;7.00;;;3.60;;
19339;SDS011;9804;52.350;6.684;2023-07-16T12:28:56;9.60;;;3.70;;
19339;SDS011;9804;52.350;6.684;2023-07-16T12:31:22;6.95;;;3.47;;
19339;SDS011;9804;52.350;6.684;2023-07-16T12:33:47;7.80;;;3.20;;
19339;SDS011;9804;52.350;6.684;2023-07-16T12:36:13;7.03;;;3.80;;
19339;SDS011;9804;52.350;6.684;2023-07-16T12:38:39;7.07;;;3.55;;
19339;SDS011;9804;52.350;6.684;2023-07-16T12:41:05;6.45;;;3.38;;
19339;SDS011;9804;52.350;6.684;2023-07-16T12:43:31;6.97;;;3.58;;
19339;SDS011;9804;52.350;6.684;2023-07-16T12:45:59;6.78;;;3.25;;
19339;SDS011;9804;52.350;6.684;2023-07-16T12:48:29;6.20;;;3.67;;
19339;SDS011;9804;52.350;6.684;2023-07-16T12:50:55;6.40;;;3.85;;
19339;SDS011;9804;52.350;6.684;2023-07-16T12:53:20;6.75;;;3.60;;
19339;SDS011;9804;52.350;6.684;2023-07-16T12:55:45;8.90;;;3.60;;
19339;SDS011;9804;52.350;6.684;2023-07-16T12:58:11;10.35;;;4.20;;
19339;SDS011;9804;52.350;6.684;2023-07-16T13:00:36;8.52;;;4.10;;
19339;SDS011;9804;52.350;6.684;2023-07-16T13:03:01;8.05;;;3.50;;
19339;SDS011;9804;52.350;6.684;2023-07-16T13:05:27;11.35;;;4.40;;
19339;SDS011;9804;52.350;6.684;2023-07-16T13:07:53;8.95;;;4.15;;
19339;SDS011;9804;52.350;6.684;2023-07-16T13:10:18;10.35;;;4.07;;
19339;SDS011;9804;52.350;6.684;2023-07-16T13:12:43;9.48;;;4.55;;
19339;SDS011;9804;52.350;6.684;2023-07-16T13:15:09;9.18;;;4.30;;
19339;SDS011;9804;52.350;6.684;2023-07-16T13:17:35;9.80;;;4.38;;
19339;SDS011;9804;52.350;6.684;2023-07-16T13:20:02;10.90;;;5.63;;
19339;SDS011;9804;52.350;6.684;2023-07-16T13:22:28;8.73;;;4.10;;
19339;SDS011;9804;52.350;6.684;2023-07-16T13:24:53;6.20;;;4.43;;
19339;SDS011;9804;52.350;6.684;2023-07-16T13:27:19;6.75;;;3.88;;
19339;SDS011;9804;52.350;6.684;2023-07-16T13:29:47;7.82;;;4.88;;
19339;SDS011;9804;52.350;6.684;2023-07-16T13:32:12;9.25;;;4.63;;
19339;SDS011;9804;52.350;6.684;2023-07-16T13:34:38;8.13;;;4.25;;
19339;SDS011;9804;52.350;6.684;2023-07-16T13:37:03;8.10;;;4.63;;
19339;SDS011;9804;52.350;6.684;2023-07-16T13:39:29;9.10;;;4.18;;
19339;SDS011;9804;52.350;6.684;2023-07-16T13:41:54;6.35;;;4.47;;
19339;SDS011;9804;52.350;6.684;2023-07-16T13:44:19;8.30;;;3.92;;
19339;SDS011;9804;52.350;6.684;2023-07-16T13:46:45;9.65;;;4.40;;
19339;SDS011;9804;52.350;6.684;2023-07-16T13:49:10;6.70;;;4.55;;
19339;SDS011;9804;52.350;6.684;2023-07-16T13:51:35;9.55;;;4.82;;
19339;SDS011;9804;52.350;6.684;2023-07-16T13:54:01;8.95;;;4.47;;
19339;SDS011;9804;52.350;6.684;2023-07-16T13:56:26;7.90;;;4.43;;
19339;SDS011;9804;52.350;6.684;2023-07-16T13:58:52;8.70;;;3.97;;
19339;SDS011;9804;52.350;6.684;2023-07-16T14:01:18;9.65;;;4.35;;
19339;SDS011;9804;52.350;6.684;2023-07-16T14:03:44;7.78;;;3.83;;
19339;SDS011;9804;52.350;6.684;2023-07-16T14:06:09;9.07;;;4.57;;
19339;SDS011;9804;52.350;6.684;2023-07-16T14:08:35;7.45;;;4.03;;
19339;SDS011;9804;52.350;6.684;2023-07-16T14:11:01;8.05;;;4.30;;
19339;SDS011;9804;52.350;6.684;2023-07-16T14:13:27;7.85;;;3.88;;
19339;SDS011;9804;52.350;6.684;2023-07-16T14:15:53;6.50;;;4.35;;
19339;SDS011;9804;52.350;6.684;2023-07-16T14:18:18;6.72;;;4.30;;
19339;SDS011;9804;52.350;6.684;2023-07-16T14:20:44;9.80;;;4.50;;
19339;SDS011;9804;52.350;6.684;2023-07-16T14:23:09;6.10;;;4.40;;
19339;SDS011;9804;52.350;6.684;2023-07-16T14:25:34;10.68;;;4.38;;
19339;SDS011;9804;52.350;6.684;2023-07-16T14:28:00;5.97;;;3.90;;
19339;SDS011;9804;52.350;6.684;2023-07-16T14:30:25;8.43;;;4.05;;
19339;SDS011;9804;52.350;6.684;2023-07-16T14:32:50;6.13;;;3.90;;
19339;SDS011;9804;52.350;6.684;2023-07-16T14:35:16;5.95;;;3.78;;
19339;SDS011;9804;52.350;6.684;2023-07-16T14:37:41;8.90;;;3.67;;
19339;SDS011;9804;52.350;6.684;2023-07-16T14:40:07;7.75;;;5.40;;
19339;SDS011;9804;52.350;6.684;2023-07-16T14:42:33;8.20;;;4.13;;
19339;SDS011;9804;52.350;6.684;2023-07-16T14:44:59;7.18;;;4.30;;
19339;SDS011;9804;52.350;6.684;2023-07-16T14:47:24;7.28;;;3.72;;
19339;SDS011;9804;52.350;6.684;2023-07-16T14:49:49;9.18;;;4.15;;
19339;SDS011;9804;52.350;6.684;2023-07-16T14:52:15;8.10;;;4.28;;
19339;SDS011;9804;52.350;6.684;2023-07-16T14:54:40;7.78;;;3.90;;